This is the latest recevied weather packets stored in our database for station/object I8ZSE-10. If no packets are shown the sender has not sent any weather packets the latest 10 day(s).
| Time | Temp. | Humidity | Pressure | Rain* | Wind** | Luminosity | Snow |
|---|---|---|---|---|---|---|---|
| 1788450030 | 28.33° C | 37% | - | 0 mm | - | - | - |
| 1788449430 | 27.22° C | 38% | - | 0 mm | - | - | - |
| 1788448830 | 27.78° C | 38% | - | 0 mm | - | - | - |
| 1788448230 | 28.33° C | 38% | - | 0 mm | - | - | - |
| 1788447630 | 27.22° C | 39% | - | 0 mm | - | - | - |
| 1788447030 | 27.78° C | 38% | - | 0 mm | - | - | - |
| 1788446430 | 27.78° C | 38% | - | 0 mm | - | - | - |
| 1788445830 | 27.22° C | 38% | - | 0 mm | - | - | - |
| 1788445230 | 26.67° C | 38% | - | 0 mm | - | - | - |
| 1788444630 | 27.78° C | 37% | - | 0 mm | - | - | - |
| 1788444030 | 28.33° C | 31% | - | 0 mm | - | - | - |
| 1788443430 | 28.89° C | 31% | - | 0 mm | - | - | - |
| 1788442830 | 28.89° C | 31% | - | 0 mm | - | - | - |
| 1788442230 | 28.33° C | 32% | - | 0 mm | - | - | - |
| 1788441630 | 28.89° C | 30% | - | 0 mm | - | - | - |
| 1788441030 | 27.78° C | 32% | - | 0 mm | - | - | - |
| 1788440430 | 28.33° C | 32% | - | 0 mm | - | - | - |
| 1788439830 | 28.33° C | 32% | - | 0 mm | - | - | - |
| 1788439230 | 27.78° C | 31% | - | 0 mm | - | - | - |
| 1788438630 | 27.78° C | 32% | - | 0 mm | - | - | - |
| 1788438030 | 27.78° C | 32% | - | 0 mm | - | - | - |
| 1788437430 | 27.78° C | 32% | - | 0 mm | - | - | - |
| 1788436830 | 27.78° C | 33% | - | 0 mm | - | - | - |
| 1788436230 | 28.33° C | 32% | - | 0 mm | - | - | - |
| 1788435630 | 28.89° C | 32% | - | 0 mm | - | - | - |
* Rain latest hour (hover to see other rain measurements)
** Current wind speed in m/s (hover to see current wind gust speed)